Time;durP1;ratioP1;P1;durP2;ratioP2;P2;SDS_P1;SDS_P2;PMS_P1;PMS_P2;Temp;Humidity;BMP_temperature;BMP_pressure;BME280_temperature;BME280_humidity;BME280_pressure;Samples;Min_cycle;Max_cycle;Signal;HPM_P1;HPM_P2
2022/05/29 00:00:21;;;;;;;2.10;1.60;;;14.90;85.30;;;;;;7385197;19;21186;-81
2022/05/29 00:02:51;;;;;;;3.33;2.00;;;15.00;87.10;;;;;;7386787;19;20415;-80
2022/05/29 00:05:25;;;;;;;2.23;1.40;;;14.80;87.00;;;;;;7386913;19;20396;-81
2022/05/29 00:07:56;;;;;;;2.80;1.80;;;14.80;90.20;;;;;;7380611;19;20411;-80
2022/05/29 00:10:28;;;;;;;4.30;2.00;;;14.50;92.50;;;;;;7383840;19;20944;-82
2022/05/29 00:13:00;;;;;;;2.93;2.37;;;14.50;93.00;;;;;;7389792;19;20400;-82
2022/05/29 00:15:29;;;;;;;1.63;1.53;;;14.40;93.80;;;;;;7388299;19;20412;-82
2022/05/29 00:17:59;;;;;;;4.20;1.83;;;14.30;95.60;;;;;;7385481;19;20415;-82
2022/05/29 00:20:31;;;;;;;3.47;1.97;;;14.10;95.60;;;;;;7388230;19;20419;-82
2022/05/29 00:23:01;;;;;;;3.17;2.10;;;14.00;95.10;;;;;;7389541;19;20411;-82
2022/05/29 00:25:34;;;;;;;8.57;2.20;;;13.90;95.20;;;;;;7389913;19;20418;-82
2022/05/29 00:28:03;;;;;;;3.73;2.23;;;13.90;95.40;;;;;;7384578;19;20396;-82
2022/05/29 00:30:35;;;;;;;1.90;1.70;;;13.80;95.70;;;;;;7388969;19;20412;-82
2022/05/29 00:33:05;;;;;;;2.20;2.00;;;13.70;96.80;;;;;;7388157;19;20376;-82
2022/05/29 00:35:42;;;;;;;2.90;1.97;;;13.60;97.00;;;;;;7390150;19;20919;-82
2022/05/29 00:38:14;;;;;;;2.90;2.20;;;13.70;97.50;;;;;;7386623;19;20407;-83
2022/05/29 00:40:51;;;;;;;3.30;2.33;;;13.50;97.90;;;;;;7387404;19;20413;-82
2022/05/29 00:43:21;;;;;;;2.90;2.13;;;13.50;98.00;;;;;;7380388;19;20934;-82
2022/05/29 00:45:54;;;;;;;7.27;2.77;;;13.40;99.30;;;;;;7384800;19;20948;-82
2022/05/29 00:48:24;;;;;;;3.67;2.33;;;13.60;99.70;;;;;;7387807;19;20419;-81
2022/05/29 00:50:58;;;;;;;3.27;2.00;;;13.60;99.90;;;;;;7375489;19;20409;-83
2022/05/29 00:53:29;;;;;;;3.33;1.70;;;13.60;99.90;;;;;;7382403;19;21285;-82
2022/05/29 00:56:03;;;;;;;2.60;2.33;;;13.50;99.90;;;;;;7378910;19;20412;-83
2022/05/29 00:58:32;;;;;;;3.73;1.90;;;13.70;99.80;;;;;;7377549;19;20785;-82
2022/05/29 01:01:03;;;;;;;6.13;2.30;;;13.60;99.90;;;;;;7380127;19;20455;-82
2022/05/29 01:03:33;;;;;;;6.20;2.00;;;13.50;99.90;;;;;;7377989;19;20732;-83
2022/05/29 01:06:08;;;;;;;4.53;2.40;;;13.70;99.50;;;;;;7376734;19;20422;-81
2022/05/29 01:08:39;;;;;;;4.23;2.60;;;13.70;98.40;;;;;;7377119;19;20519;-83
2022/05/29 01:11:21;;;;;;;4.60;1.60;;;13.70;98.50;;;;;;7380226;19;20919;-82
2022/05/29 01:14:14;;;;;;;5.43;2.20;;;13.70;98.50;;;;;;7376945;19;20765;-82
2022/05/29 01:16:55;;;;;;;2.80;1.83;;;13.60;98.50;;;;;;7379203;19;20417;-82
2022/05/29 01:19:54;;;;;;;3.03;1.57;;;13.50;98.30;;;;;;7372841;19;20412;-82
2022/05/29 01:22:43;;;;;;;3.17;2.37;;;13.50;98.20;;;;;;7379453;19;20462;-82
2022/05/29 01:25:48;;;;;;;4.03;2.03;;;13.40;98.80;;;;;;7375932;19;20429;-82
2022/05/29 01:28:38;;;;;;;4.20;1.83;;;13.60;98.60;;;;;;7360038;19;21458;-82
2022/05/29 01:31:14;;;;;;;4.90;2.20;;;13.50;98.50;;;;;;7368593;19;20419;-83
2022/05/29 01:33:48;;;;;;;3.03;1.93;;;13.60;98.20;;;;;;7372431;19;20416;-82
2022/05/29 01:36:26;;;;;;;4.10;2.13;;;13.40;98.90;;;;;;7373130;19;20404;-83
2022/05/29 01:39:01;;;;;;;4.40;2.10;;;13.60;98.50;;;;;;7372996;19;20449;-83
2022/05/29 01:41:39;;;;;;;3.80;2.13;;;13.70;99.00;;;;;;7368984;19;21035;-81
2022/05/29 01:44:19;;;;;;;2.40;2.00;;;13.70;98.50;;;;;;7363773;19;20556;-81
2022/05/29 01:46:51;;;;;;;6.17;2.27;;;;;;;;;;7367064;19;20996;-81
2022/05/29 01:49:28;;;;;;;3.00;2.10;;;13.80;84.80;;;;;;7365889;19;20425;-81
2022/05/29 01:52:03;;;;;;;4.23;2.60;;;13.80;86.20;;;;;;7368752;19;20403;-80
2022/05/29 01:54:39;;;;;;;2.30;2.00;;;13.60;89.40;;;;;;7370569;19;20487;-81
2022/05/29 01:57:12;;;;;;;2.63;2.07;;;13.70;87.80;;;;;;7355278;19;20424;-80
2022/05/29 01:59:55;;;;;;;5.97;2.30;;;13.60;86.20;;;;;;7366798;19;20413;-80
2022/05/29 02:02:31;;;;;;;3.10;2.10;;;13.50;87.50;;;;;;7372197;19;20407;-81
2022/05/29 02:05:08;;;;;;;3.10;2.47;;;13.60;87.20;;;;;;7369250;19;20400;-81
2022/05/29 02:07:50;;;;;;;3.77;2.50;;;13.70;84.70;;;;;;7368887;19;20392;-80
2022/05/29 02:10:32;;;;;;;2.80;2.00;;;13.60;85.20;;;;;;7364749;19;20401;-82
2022/05/29 02:13:08;;;;;;;12.53;2.40;;;13.50;85.90;;;;;;7375196;19;20412;-83
2022/05/29 02:15:53;;;;;;;4.30;2.27;;;13.30;88.10;;;;;;7374346;19;20813;-82
2022/05/29 02:18:26;;;;;;;2.60;2.10;;;13.20;87.70;;;;;;7376732;19;20499;-82
2022/05/29 02:21:01;;;;;;;2.53;1.93;;;13.20;86.60;;;;;;7371611;19;20408;-83
2022/05/29 02:23:34;;;;;;;4.57;2.20;;;13.30;87.40;;;;;;7372368;19;20403;-82
2022/05/29 02:26:06;;;;;;;2.27;2.07;;;13.10;87.80;;;;;;7371275;19;20936;-82
2022/05/29 02:28:39;;;;;;;3.67;2.07;;;13.00;87.90;;;;;;7376923;19;20417;-82
2022/05/29 02:31:20;;;;;;;3.37;2.03;;;13.10;86.90;;;;;;7368287;19;20416;-82
2022/05/29 02:33:58;;;;;;;5.03;2.00;;;13.10;85.10;;;;;;7368658;19;20412;-82
2022/05/29 02:36:38;;;;;;;2.40;2.17;;;13.10;83.90;;;;;;7373064;19;20408;-81
2022/05/29 02:39:34;;;;;;;3.83;2.10;;;12.80;84.60;;;;;;7372476;19;21083;-82
2022/05/29 02:42:17;;;;;;;3.07;2.13;;;12.70;86.90;;;;;;7371239;19;21320;-80
2022/05/29 02:44:55;;;;;;;2.30;1.80;;;12.60;87.20;;;;;;7369357;19;20436;-80
2022/05/29 02:47:40;;;;;;;2.80;2.60;;;12.70;86.80;;;;;;7365210;19;21283;-80
2022/05/29 02:50:26;;;;;;;2.00;1.80;;;12.70;85.30;;;;;;7374072;19;20420;-80
2022/05/29 02:53:04;;;;;;;2.73;2.00;;;12.90;84.80;;;;;;7362129;19;20407;-79
2022/05/29 02:55:36;;;;;;;3.30;1.53;;;13.00;83.30;;;;;;7359628;19;20408;-80
2022/05/29 02:58:13;;;;;;;2.90;2.57;;;13.00;83.40;;;;;;7361212;19;20410;-80
2022/05/29 03:00:59;;;;;;;3.00;1.90;;;13.00;82.80;;;;;;7370644;19;20936;-80
2022/05/29 03:03:37;;;;;;;2.50;1.80;;;13.00;81.80;;;;;;7365808;19;20409;-80
2022/05/29 03:06:28;;;;;;;1.50;1.40;;;13.10;80.50;;;;;;7367080;19;20506;-80
2022/05/29 03:09:10;;;;;;;3.30;1.90;;;13.20;79.80;;;;;;7369432;19;21413;-81
2022/05/29 03:11:42;;;;;;;3.97;2.47;;;12.90;80.70;;;;;;7358961;19;20969;-81
2022/05/29 03:14:23;;;;;;;2.13;1.93;;;12.90;82.00;;;;;;7366950;19;21850;-81
2022/05/29 03:17:11;;;;;;;4.90;2.23;;;12.80;80.80;;;;;;7369140;19;20432;-82
2022/05/29 03:19:53;;;;;;;5.43;1.90;;;12.80;80.40;;;;;;7375928;19;20416;-83
2022/05/29 03:22:31;;;;;;;2.20;2.10;;;12.90;81.60;;;;;;7360212;19;20413;-82
2022/05/29 03:25:05;;;;;;;2.47;2.10;;;12.90;80.60;;;;;;7363559;19;21193;-83
2022/05/29 03:27:40;;;;;;;4.73;1.80;;;13.00;79.70;;;;;;7368787;19;20559;-83
2022/05/29 03:30:15;;;;;;;2.93;2.20;;;13.00;80.40;;;;;;7368453;19;20507;-83
2022/05/29 03:32:45;;;;;;;2.57;1.83;;;12.90;80.50;;;;;;7359139;19;20494;-82
2022/05/29 03:35:27;;;;;;;3.70;1.73;;;12.80;80.90;;;;;;7366069;19;20498;-82
2022/05/29 03:37:57;;;;;;;3.43;1.90;;;13.00;79.30;;;;;;7368497;19;20400;-82
2022/05/29 03:40:28;;;;;;;6.17;1.90;;;13.10;80.00;;;;;;7362583;19;20391;-82
2022/05/29 03:42:58;;;;;;;3.57;1.97;;;13.30;78.40;;;;;;7367331;19;20380;-82
2022/05/29 03:45:30;;;;;;;2.00;1.80;;;13.30;78.10;;;;;;7363869;19;20427;-82
2022/05/29 03:48:02;;;;;;;2.10;1.87;;;13.40;77.20;;;;;;7365941;19;20396;-83
2022/05/29 03:50:34;;;;;;;2.70;1.83;;;13.60;74.40;;;;;;7358238;19;21025;-83
2022/05/29 03:53:05;;;;;;;1.90;1.80;;;13.80;71.70;;;;;;7365307;19;20779;-82
2022/05/29 03:55:35;;;;;;;3.13;2.00;;;14.00;69.30;;;;;;7366535;19;20412;-82
2022/05/29 03:58:07;;;;;;;3.63;1.93;;;14.50;65.90;;;;;;7366320;19;20428;-83
2022/05/29 04:00:39;;;;;;;2.93;1.70;;;14.10;64.80;;;;;;7369195;19;20411;-83
2022/05/29 04:03:09;;;;;;;3.43;2.30;;;14.20;63.40;;;;;;7369980;19;20419;-82
2022/05/29 04:05:41;;;;;;;2.70;1.63;;;14.10;63.90;;;;;;7362450;19;20789;-83
2022/05/29 04:13:43;;;;;;;2.10;1.90;;;13.80;66.60;;;;;;7369889;19;20408;-83
2022/05/29 04:16:14;;;;;;;2.43;2.03;;;13.80;66.90;;;;;;7348406;19;20439;-82
2022/05/29 04:18:45;;;;;;;2.90;1.87;;;13.80;67.00;;;;;;7366394;19;20420;-83
2022/05/29 04:21:19;;;;;;;3.30;1.73;;;13.60;68.30;;;;;;7362071;19;20400;-80
2022/05/29 04:23:51;;;;;;;2.23;1.90;;;13.60;68.00;;;;;;7364245;19;20426;-81
2022/05/29 04:26:23;;;;;;;2.30;1.90;;;13.80;68.70;;;;;;7360954;19;21581;-81
2022/05/29 04:28:55;;;;;;;2.30;1.77;;;13.80;68.60;;;;;;7374546;19;20412;-80
2022/05/29 04:31:27;;;;;;;4.27;2.20;;;14.00;68.30;;;;;;7372120;19;20408;-81
2022/05/29 04:33:54;;;;;;;2.30;1.70;;;14.10;67.50;;;;;;7366564;19;22112;-81
2022/05/29 04:36:29;;;;;;;1.93;1.73;;;14.30;66.70;;;;;;7364703;19;20420;-81
2022/05/29 04:38:58;;;;;;;3.00;1.67;;;14.50;66.60;;;;;;7371904;19;20412;-80
2022/05/29 04:41:30;;;;;;;3.60;2.00;;;14.10;66.40;;;;;;7366750;19;21083;-81
2022/05/29 04:44:02;;;;;;;4.13;1.80;;;14.00;67.20;;;;;;7359046;19;20404;-81
2022/05/29 04:46:32;;;;;;;3.13;1.67;;;14.70;68.90;;;;;;7369181;19;20435;-81
2022/05/29 04:49:03;;;;;;;2.80;1.70;;;14.30;69.10;;;;;;7368043;19;20949;-81
2022/05/29 04:51:35;;;;;;;3.13;1.93;;;14.40;69.90;;;;;;7373821;19;21343;-81
2022/05/29 04:54:05;;;;;;;3.03;1.73;;;14.30;70.50;;;;;;7367041;19;20418;-79
2022/05/29 04:56:37;;;;;;;2.33;2.13;;;14.10;70.00;;;;;;7375594;19;20451;-81
2022/05/29 04:59:09;;;;;;;4.30;2.10;;;14.20;72.30;;;;;;7365481;19;20392;-80
2022/05/29 05:01:41;;;;;;;2.10;1.87;;;14.20;79.70;;;;;;7372215;19;20438;-80
2022/05/29 05:04:13;;;;;;;5.00;2.27;;;14.10;84.00;;;;;;7371504;19;20488;-80
2022/05/29 05:06:45;;;;;;;3.17;2.50;;;13.80;83.50;;;;;;7373512;19;20420;-80
2022/05/29 05:09:17;;;;;;;6.73;2.90;;;13.70;84.80;;;;;;7373533;19;20411;-81
2022/05/29 05:11:47;;;;;;;3.00;2.27;;;13.60;85.40;;;;;;7376455;19;20388;-80
2022/05/29 05:14:16;;;;;;;4.47;2.67;;;13.40;85.70;;;;;;7372967;19;21065;-80
2022/05/29 05:16:49;;;;;;;3.40;2.30;;;13.60;86.20;;;;;;7376215;19;20757;-81
2022/05/29 05:19:19;;;;;;;2.60;2.20;;;13.60;85.00;;;;;;7371488;19;20397;-81
2022/05/29 05:21:54;;;;;;;4.80;3.80;;;13.70;86.70;;;;;;7376483;19;20525;-81
2022/05/29 05:24:23;;;;;;;2.83;2.13;;;14.00;85.50;;;;;;7374981;19;21240;-81
2022/05/29 05:26:53;;;;;;;2.67;2.17;;;13.90;84.60;;;;;;7377487;19;20401;-81
2022/05/29 05:29:22;;;;;;;2.93;2.43;;;14.20;81.60;;;;;;7376726;19;20399;-80
2022/05/29 05:31:56;;;;;;;3.23;2.40;;;14.10;83.90;;;;;;7372164;19;20419;-82
2022/05/29 05:34:27;;;;;;;2.47;2.27;;;13.90;84.50;;;;;;7371745;19;20409;-82
2022/05/29 05:36:59;;;;;;;3.63;2.77;;;13.80;85.00;;;;;;7375588;19;20380;-82
2022/05/29 05:39:28;;;;;;;4.87;2.50;;;13.90;86.40;;;;;;7373612;19;20392;-82
2022/05/29 05:41:58;;;;;;;3.13;2.83;;;14.00;87.50;;;;;;7373709;19;20830;-82
2022/05/29 05:44:28;;;;;;;2.70;2.50;;;14.10;86.90;;;;;;7373198;19;20431;-82
2022/05/29 05:46:57;;;;;;;5.03;3.17;;;14.10;87.10;;;;;;7372223;19;20408;-82
2022/05/29 05:49:27;;;;;;;3.43;2.50;;;14.20;83.50;;;;;;7374482;19;20412;-82
2022/05/29 05:52:00;;;;;;;7.70;2.80;;;14.20;84.20;;;;;;7371100;19;20404;-83
2022/05/29 05:54:34;;;;;;;4.70;2.30;;;14.20;82.50;;;;;;7372672;19;20404;-82
2022/05/29 05:57:07;;;;;;;6.40;2.50;;;14.40;83.30;;;;;;7367970;19;20797;-82
2022/05/29 05:59:38;;;;;;;2.80;2.03;;;14.50;80.60;;;;;;7374333;19;21258;-82
2022/05/29 06:02:11;;;;;;;8.23;2.43;;;14.60;80.80;;;;;;7371801;19;20412;-82
2022/05/29 06:04:42;;;;;;;7.47;2.60;;;14.80;78.60;;;;;;7372677;19;20424;-81
2022/05/29 06:07:14;;;;;;;3.90;2.43;;;15.10;74.70;;;;;;7367805;19;20408;-82
2022/05/29 06:09:45;;;;;;;3.30;2.00;;;15.30;73.00;;;;;;7377802;19;21088;-82
2022/05/29 06:12:19;;;;;;;6.90;2.30;;;15.30;74.00;;;;;;7369629;19;20423;-82
2022/05/29 06:14:54;;;;;;;7.23;2.47;;;15.50;73.60;;;;;;7374103;19;20397;-83
2022/05/29 06:17:24;;;;;;;5.77;2.83;;;15.60;71.60;;;;;;7367285;19;20391;-83
2022/05/29 06:19:53;;;;;;;4.30;2.00;;;15.60;71.80;;;;;;7369431;19;22491;-82
2022/05/29 06:22:28;;;;;;;3.23;1.60;;;15.80;70.80;;;;;;7373090;19;20908;-82
2022/05/29 06:25:01;;;;;;;2.20;1.73;;;15.80;68.40;;;;;;7370251;19;20473;-82
2022/05/29 06:27:37;;;;;;;4.57;2.00;;;16.10;66.50;;;;;;7366888;19;20401;-82
2022/05/29 06:30:09;;;;;;;3.60;1.97;;;16.20;63.20;;;;;;7365933;19;20407;-82
2022/05/29 06:32:45;;;;;;;2.03;1.80;;;16.50;64.40;;;;;;7372112;19;20412;-82
2022/05/29 06:35:17;;;;;;;1.97;1.53;;;16.70;64.80;;;;;;7370620;19;20495;-82
2022/05/29 06:37:49;;;;;;;3.53;1.73;;;16.80;64.20;;;;;;7371050;19;20959;-82
2022/05/29 06:40:19;;;;;;;5.07;2.00;;;16.90;59.50;;;;;;7371973;19;20399;-82
2022/05/29 06:42:48;;;;;;;3.60;1.83;;;16.90;61.00;;;;;;7369807;19;20443;-82
2022/05/29 06:45:18;;;;;;;3.60;2.10;;;17.00;61.60;;;;;;7367221;19;20416;-82
2022/05/29 06:47:48;;;;;;;2.23;1.60;;;16.80;61.60;;;;;;7367011;19;20411;-82
2022/05/29 06:50:22;;;;;;;3.93;1.67;;;16.80;59.30;;;;;;7371256;19;20535;-83
2022/05/29 06:52:54;;;;;;;2.57;1.90;;;16.60;58.60;;;;;;7369977;19;20420;-84
2022/05/29 06:55:25;;;;;;;2.13;1.93;;;16.70;59.30;;;;;;7366271;19;21024;-81
2022/05/29 06:57:55;;;;;;;3.87;1.80;;;16.60;58.70;;;;;;7363656;19;21112;-82
2022/05/29 07:08:45;;;;;;;3.03;1.30;;;16.80;57.90;;;;;;7371407;19;20418;-82
2022/05/29 07:11:19;;;;;;;3.53;1.80;;;16.80;59.40;;;;;;7368153;19;21062;-82
2022/05/29 07:13:49;;;;;;;2.87;1.30;;;16.70;59.10;;;;;;7369265;19;20425;-82
2022/05/29 07:16:19;;;;;;;4.10;1.73;;;16.60;58.60;;;;;;7367218;19;20412;-81
2022/05/29 07:18:50;;;;;;;4.37;1.70;;;16.90;58.60;;;;;;7361919;19;20884;-82
2022/05/29 07:21:20;;;;;;;4.20;1.93;;;17.10;57.20;;;;;;7367070;19;20404;-82
2022/05/29 07:23:52;;;;;;;2.70;1.60;;;17.20;57.80;;;;;;7370053;19;20772;-82
2022/05/29 07:26:22;;;;;;;2.10;1.60;;;17.30;56.80;;;;;;7362999;19;20426;-82
2022/05/29 07:28:51;;;;;;;3.73;1.60;;;17.40;56.00;;;;;;7367875;19;20981;-81
2022/05/29 07:31:23;;;;;;;2.70;1.37;;;17.30;55.10;;;;;;7367213;19;20400;-81
2022/05/29 07:33:53;;;;;;;3.73;1.53;;;17.40;56.40;;;;;;7367617;19;20372;-81
2022/05/29 07:36:26;;;;;;;2.30;1.63;;;17.50;55.30;;;;;;7368340;19;20515;-82
2022/05/29 07:38:58;;;;;;;3.27;1.80;;;17.60;53.50;;;;;;7370676;19;20411;-82
2022/05/29 07:44:12;;;;;;;6.93;1.33;;;17.30;54.50;;;;;;7368411;19;20400;-80
2022/05/29 07:46:41;;;;;;;3.20;1.47;;;17.20;54.10;;;;;;7363651;19;20397;-80
2022/05/29 07:49:11;;;;;;;4.80;1.27;;;17.40;53.60;;;;;;7370445;19;20930;-83
2022/05/29 07:51:40;;;;;;;1.70;1.33;;;17.50;53.50;;;;;;7365610;19;20400;-81
2022/05/29 07:54:12;;;;;;;3.50;1.67;;;17.40;53.30;;;;;;7368900;19;21073;-82
2022/05/29 07:56:42;;;;;;;2.23;1.00;;;17.40;53.40;;;;;;7362706;19;20454;-81
2022/05/29 07:59:14;;;;;;;2.50;1.50;;;17.20;53.70;;;;;;7374791;19;20435;-82
2022/05/29 08:01:43;;;;;;;4.50;1.67;;;17.00;53.40;;;;;;7372692;19;20427;-81
2022/05/29 08:04:15;;;;;;;1.87;1.30;;;17.40;55.40;;;;;;7370525;19;20955;-83
2022/05/29 08:06:47;;;;;;;3.03;1.33;;;18.00;52.60;;;;;;7364975;19;20408;-81
2022/05/29 08:09:19;;;;;;;2.80;1.20;;;18.10;50.70;;;;;;7378736;19;21309;-81
2022/05/29 08:11:51;;;;;;;3.33;1.53;;;18.40;50.80;;;;;;7367503;19;20403;-82
2022/05/29 08:14:23;;;;;;;5.40;1.83;;;18.20;50.50;;;;;;7368456;19;20471;-82
2022/05/29 08:16:52;;;;;;;3.07;1.43;;;18.30;51.30;;;;;;7365175;19;20906;-83
2022/05/29 08:19:23;;;;;;;5.00;1.73;;;18.40;51.90;;;;;;7374502;19;20552;-82
2022/05/29 08:21:53;;;;;;;4.60;2.50;;;18.00;52.30;;;;;;7373281;19;21038;-81
2022/05/29 08:32:36;;;;;;;3.60;1.40;;;17.90;51.90;;;;;;7378731;19;20388;-81
2022/05/29 08:35:07;;;;;;;5.70;1.60;;;18.10;51.60;;;;;;7377875;19;20438;-82
2022/05/29 08:37:37;;;;;;;3.40;1.70;;;18.10;52.10;;;;;;7375810;19;21002;-82
2022/05/29 08:40:11;;;;;;;3.80;1.60;;;18.10;52.50;;;;;;7369870;19;20404;-81
2022/05/29 08:42:44;;;;;;;3.73;1.67;;;17.90;52.30;;;;;;7361910;19;20415;-81
2022/05/29 08:45:16;;;;;;;4.40;1.90;;;18.20;52.70;;;;;;7378055;19;20931;-84
2022/05/29 08:47:51;;;;;;;5.73;1.90;;;18.30;52.70;;;;;;7374548;19;20395;-82
2022/05/29 08:50:25;;;;;;;2.90;1.63;;;18.40;52.50;;;;;;7372821;19;20419;-82
2022/05/29 08:53:04;;;;;;;6.00;2.23;;;18.50;52.20;;;;;;7373304;19;20408;-82
2022/05/29 08:55:43;;;;;;;2.17;1.50;;;18.30;52.20;;;;;;7375409;19;20404;-81
2022/05/29 08:58:26;;;;;;;3.33;1.67;;;17.80;52.80;;;;;;7368413;19;20415;-81
2022/05/29 09:01:09;;;;;;;3.50;1.70;;;17.50;53.50;;;;;;7375629;19;20748;-81
2022/05/29 09:03:48;;;;;;;3.07;1.60;;;17.20;54.50;;;;;;7371353;19;20416;-82
2022/05/29 09:06:21;;;;;;;5.30;2.13;;;17.20;54.80;;;;;;7371780;19;20536;-82
2022/05/29 09:08:59;;;;;;;2.03;1.40;;;17.10;54.90;;;;;;7373536;19;20428;-86
2022/05/29 09:11:35;;;;;;;11.10;4.93;;;17.20;55.00;;;;;;7372697;19;20406;-84
2022/05/29 09:14:13;;;;;;;4.20;2.83;;;17.10;55.00;;;;;;7375032;19;20420;-84
2022/05/29 09:16:48;;;;;;;3.60;2.00;;;17.20;55.20;;;;;;7371315;19;21200;-83
2022/05/29 09:19:28;;;;;;;3.20;1.73;;;17.20;55.70;;;;;;7375793;19;20431;-81
2022/05/29 09:22:03;;;;;;;3.03;2.10;;;17.00;55.80;;;;;;7372006;19;20400;-84
2022/05/29 09:25:04;;;;;;;3.30;1.77;;;17.00;56.20;;;;;;7379309;19;20408;-83
2022/05/29 09:27:38;;;;;;;4.23;2.60;;;17.00;57.00;;;;;;7366983;19;20401;-82
2022/05/29 09:30:12;;;;;;;6.63;2.37;;;16.90;57.80;;;;;;7376502;19;20413;-84
2022/05/29 09:32:50;;;;;;;5.50;2.73;;;16.90;58.00;;;;;;7379548;19;20417;-84
2022/05/29 09:35:28;;;;;;;4.83;1.60;;;16.90;58.60;;;;;;7366601;19;20412;-82
2022/05/29 09:38:03;;;;;;;5.00;2.17;;;16.90;58.80;;;;;;7371541;19;21022;-80
2022/05/29 09:40:40;;;;;;;3.70;2.00;;;17.00;57.90;;;;;;7372570;19;20384;-81
2022/05/29 09:43:23;;;;;;;6.53;2.50;;;17.00;58.10;;;;;;7373555;19;20406;-82
2022/05/29 09:45:53;;;;;;;3.23;1.60;;;17.20;58.20;;;;;;7372735;19;20407;-81
2022/05/29 09:51:18;;;;;;;8.83;2.13;;;17.30;56.40;;;;;;7364580;19;20403;-81
2022/05/29 09:53:52;;;;;;;5.20;1.83;;;17.40;55.80;;;;;;7376054;19;20417;-81
2022/05/29 09:56:31;;;;;;;15.07;5.43;;;17.50;55.50;;;;;;7369019;19;20427;-83
2022/05/29 09:59:08;;;;;;;5.00;1.50;;;17.60;55.30;;;;;;7365981;19;20436;-81
2022/05/29 10:01:46;;;;;;;2.10;1.70;;;17.90;55.50;;;;;;7372394;19;20412;-79
2022/05/29 10:04:22;;;;;;;8.80;2.20;;;17.80;55.40;;;;;;7368003;19;20818;-81
2022/05/29 10:06:59;;;;;;;2.73;1.57;;;18.10;55.60;;;;;;7363538;19;20959;-81
2022/05/29 10:09:31;;;;;;;4.90;2.10;;;18.40;54.50;;;;;;7369099;19;20816;-83
2022/05/29 10:12:16;;;;;;;3.90;1.60;;;18.40;54.40;;;;;;7360915;19;20400;-86
2022/05/29 10:14:48;;;;;;;2.63;1.97;;;18.20;53.80;;;;;;7371109;19;20446;-86
2022/05/29 10:17:36;;;;;;;4.50;2.17;;;17.90;52.70;;;;;;7374026;19;20483;-83
2022/05/29 10:20:26;;;;;;;6.77;1.87;;;17.90;52.70;;;;;;7367210;19;20401;-84
2022/05/29 10:23:03;;;;;;;3.53;1.90;;;17.60;53.40;;;;;;7371697;19;20408;-86
2022/05/29 10:25:35;;;;;;;5.13;1.70;;;17.60;53.20;;;;;;7370809;19;20438;-88
2022/05/29 10:28:14;;;;;;;3.30;1.87;;;17.40;52.50;;;;;;7370039;19;20555;-84
2022/05/29 10:30:51;;;;;;;4.37;1.87;;;17.50;52.40;;;;;;7368673;19;20810;-80
2022/05/29 10:33:25;;;;;;;6.03;1.60;;;16.80;52.10;;;;;;7368732;19;20404;-83
2022/05/29 10:36:02;;;;;;;5.40;1.87;;;16.60;52.50;;;;;;7362671;19;20425;-83
2022/05/29 10:38:32;;;;;;;5.97;1.53;;;16.60;52.10;;;;;;7373289;19;21005;-82
2022/05/29 10:41:03;;;;;;;2.40;1.60;;;16.50;52.70;;;;;;7370546;19;21507;-77
2022/05/29 10:43:39;;;;;;;3.50;1.40;;;16.50;53.20;;;;;;7367961;19;20446;-79
2022/05/29 10:46:18;;;;;;;4.13;1.80;;;16.50;54.70;;;;;;7358094;19;20411;-83
2022/05/29 10:49:13;;;;;;;4.20;1.97;;;16.40;57.70;;;;;;7366031;19;20393;-85
2022/05/29 10:52:07;;;;;;;3.43;1.70;;;16.30;57.70;;;;;;7359801;19;20896;-84
2022/05/29 10:54:53;;;;;;;3.17;1.80;;;16.30;58.30;;;;;;7368749;19;20405;-77
2022/05/29 10:57:34;;;;;;;3.27;1.63;;;16.10;58.30;;;;;;7367196;19;20986;-86
2022/05/29 11:00:12;;;;;;;2.50;1.50;;;16.00;58.70;;;;;;7369195;19;20411;-86
2022/05/29 11:03:23;;;;;;;3.90;2.17;;;16.00;58.40;;;;;;7364643;19;20903;-86
2022/05/29 11:06:09;;;;;;;4.33;1.73;;;16.20;58.50;;;;;;7366555;19;20364;-86
2022/05/29 11:08:46;;;;;;;6.50;2.03;;;16.70;57.90;;;;;;7370052;19;21265;-86
2022/05/29 11:11:26;;;;;;;4.50;1.83;;;17.30;56.00;;;;;;7374142;19;20393;-87
2022/05/29 11:14:22;;;;;;;2.33;1.30;;;18.00;54.10;;;;;;7375045;19;20683;-85
2022/05/29 11:17:06;;;;;;;1.80;1.30;;;18.90;52.00;;;;;;7373565;19;20404;-85
2022/05/29 11:20:11;;;;;;;2.93;1.03;;;20.60;49.30;;;;;;7366563;19;20408;-88
2022/05/29 11:22:46;;;;;;;2.43;1.47;;;23.10;41.70;;;;;;7368378;19;20433;-84
2022/05/29 11:25:36;;;;;;;2.87;1.20;;;23.50;39.10;;;;;;7359505;19;20392;-84
2022/05/29 11:28:41;;;;;;;3.37;1.20;;;22.60;40.20;;;;;;7365508;19;21002;-85
2022/05/29 11:31:31;;;;;;;2.23;1.10;;;22.20;40.10;;;;;;7365876;19;20776;-86
2022/05/29 11:34:15;;;;;;;3.03;1.13;;;22.20;39.80;;;;;;7367100;19;20413;-84
2022/05/29 11:37:01;;;;;;;3.10;1.37;;;22.50;40.00;;;;;;7376503;19;20403;-83
2022/05/29 11:39:37;;;;;;;3.30;1.30;;;23.30;38.10;;;;;;7364162;19;20858;-85
2022/05/29 11:42:14;;;;;;;1.33;1.03;;;23.40;37.30;;;;;;7354339;19;20433;-79
2022/05/29 11:44:51;;;;;;;4.87;1.20;;;23.60;36.90;;;;;;7369866;19;20412;-78
2022/05/29 11:53:04;;;;;;;1.80;1.00;;;26.40;33.40;;;;;;7377113;19;20373;-82
2022/05/29 11:55:38;;;;;;;2.17;0.80;;;26.70;32.10;;;;;;7392947;19;20424;-81
2022/05/29 11:58:13;;;;;;;2.47;1.00;;;26.40;31.30;;;;;;7366947;19;20432;-80
2022/05/29 12:00:49;;;;;;;2.20;1.90;;;26.80;31.10;;;;;;7360463;19;20415;-81
2022/05/29 12:03:39;;;;;;;3.03;1.10;;;27.80;36.00;;;;;;7369661;19;20412;-76
2022/05/29 12:06:14;;;;;;;2.47;1.30;;;27.30;30.00;;;;;;7361232;19;20408;-80
2022/05/29 12:08:55;;;;;;;2.33;1.17;;;25.70;32.70;;;;;;7363289;19;20396;-78
2022/05/29 12:11:38;;;;;;;4.97;1.50;;;24.70;33.30;;;;;;7366930;19;20408;-83
2022/05/29 12:14:13;;;;;;;2.30;1.60;;;23.80;34.60;;;;;;7368843;19;20869;-82
2022/05/29 12:16:46;;;;;;;4.13;1.47;;;22.80;36.90;;;;;;7360764;19;20554;-82
2022/05/29 12:19:19;;;;;;;7.17;1.77;;;21.90;39.40;;;;;;7361682;19;20408;-82
2022/05/29 12:21:53;;;;;;;7.10;1.90;;;21.10;41.90;;;;;;7361984;19;20396;-81
2022/05/29 12:24:31;;;;;;;2.07;1.60;;;20.30;44.00;;;;;;7365866;19;20412;-80
2022/05/29 12:27:08;;;;;;;3.17;1.40;;;20.90;44.20;;;;;;7362353;19;20372;-81
2022/05/29 12:29:44;;;;;;;3.43;1.60;;;21.60;42.40;;;;;;7367448;19;20410;-82
2022/05/29 12:32:22;;;;;;;2.23;1.70;;;22.50;40.50;;;;;;7368979;19;20416;-81
2022/05/29 12:35:00;;;;;;;2.90;1.30;;;24.00;38.10;;;;;;7365665;19;20401;-82
2022/05/29 12:37:53;;;;;;;2.20;1.47;;;25.30;35.90;;;;;;7369244;19;20364;-84
2022/05/29 12:40:55;;;;;;;3.33;1.50;;;26.80;38.20;;;;;;7366255;19;20404;-81
2022/05/29 12:44:10;;;;;;;2.63;1.40;;;26.50;34.10;;;;;;7365863;19;20507;-84
2022/05/29 12:47:10;;;;;;;3.60;1.90;;;24.90;35.70;;;;;;7360996;19;20408;-84
2022/05/29 12:49:55;;;;;;;2.60;1.17;;;23.20;37.60;;;;;;7364163;19;20420;-81
2022/05/29 12:52:31;;;;;;;3.63;2.00;;;22.30;39.80;;;;;;7369211;19;20400;-81
2022/05/29 12:55:18;;;;;;;2.63;1.63;;;21.00;41.60;;;;;;7373456;19;20947;-81
2022/05/29 12:58:37;;;;;;;4.47;1.23;;;20.90;42.40;;;;;;7357724;19;20510;-82
2022/05/29 13:01:26;;;;;;;3.53;1.03;;;20.80;40.40;;;;;;7366106;19;20442;-81
2022/05/29 13:04:24;;;;;;;3.33;1.00;;;22.20;39.00;;;;;;7364083;19;20423;-81
2022/05/29 13:07:20;;;;;;;2.83;1.10;;;24.10;35.30;;;;;;7361098;19;20400;-81
2022/05/29 13:10:23;;;;;;;2.27;1.20;;;24.40;35.30;;;;;;7367970;19;20446;-82
2022/05/29 13:12:55;;;;;;;3.03;1.27;;;24.80;34.80;;;;;;7365976;19;20418;-81
2022/05/29 13:15:32;;;;;;;1.60;1.10;;;24.70;34.40;;;;;;7364142;19;20552;-80
2022/05/29 13:18:14;;;;;;;2.97;1.20;;;24.80;35.70;;;;;;7348484;19;20443;-83
2022/05/29 13:21:10;;;;;;;3.60;1.40;;;25.90;34.00;;;;;;7372225;19;20505;-78
2022/05/29 13:23:42;;;;;;;2.20;1.00;;;27.60;31.00;;;;;;7372421;19;21138;-77
2022/05/29 13:26:25;;;;;;;2.80;1.43;;;28.20;29.80;;;;;;7370954;19;20806;-78
2022/05/29 13:29:03;;;;;;;2.13;1.00;;;28.80;29.80;;;;;;7375695;19;20472;-79
2022/05/29 13:31:58;;;;;;;1.87;1.03;;;27.90;29.40;;;;;;7352497;19;20428;-78
2022/05/29 13:34:31;;;;;;;3.60;1.30;;;25.80;32.00;;;;;;7368702;19;20368;-78
2022/05/29 13:37:12;;;;;;;2.10;1.10;;;25.50;33.20;;;;;;7371727;19;20832;-77
2022/05/29 13:39:58;;;;;;;2.33;0.93;;;25.70;32.50;;;;;;7363807;19;20396;-79
2022/05/29 13:42:33;;;;;;;2.80;1.10;;;25.30;32.50;;;;;;7364730;19;20412;-78
2022/05/29 13:45:03;;;;;;;1.60;1.17;;;24.00;34.30;;;;;;7360386;19;20400;-78
2022/05/29 13:47:47;;;;;;;1.73;1.10;;;23.00;35.90;;;;;;7360977;19;20408;-78
2022/05/29 13:50:34;;;;;;;2.80;0.80;;;22.70;36.50;;;;;;7366008;19;20414;-83
2022/05/29 13:53:07;;;;;;;2.40;1.00;;;22.00;36.80;;;;;;7367498;19;20415;-84
2022/05/29 13:55:55;;;;;;;2.50;1.27;;;21.80;36.60;;;;;;7362150;19;20416;-84
2022/05/29 14:04:09;;;;;;;1.57;1.07;;;20.70;38.20;;;;;;7364192;19;20387;-83
2022/05/29 14:06:43;;;;;;;2.80;1.10;;;20.60;38.90;;;;;;7364649;19;20848;-86
2022/05/29 14:09:40;;;;;;;5.47;1.00;;;20.50;38.80;;;;;;7367845;19;20381;-85
2022/05/29 14:12:17;;;;;;;4.17;1.50;;;20.60;39.20;;;;;;7370165;19;20984;-83
2022/05/29 14:14:52;;;;;;;5.60;1.87;;;20.60;39.20;;;;;;7368550;19;20887;-82